This is the latest recevied weather packets stored in our database for station/object BMCB-15. If no packets are shown the sender has not sent any weather packets the latest 10 day(s).
| Time | Temp. | Humidity | Pressure | Rain* | Wind** | Luminosity | Snow |
|---|---|---|---|---|---|---|---|
| 1777546839 | 17.78° C | 35% | 1027.3 hPa | 0 mm | - | 792 W/m² | - |
| 1777545638 | 16.67° C | 36% | 1027.5 hPa | 0 mm | - | 774 W/m² | - |
| 1777541438 | 15.56° C | 37% | 1027.9 hPa | 0 mm | - | 672 W/m² | - |
| 1777530038 | 7.78° C | 54% | 1028.6 hPa | 0 mm | - | 68 W/m² | - |
| 1777521036 | 5.56° C | 61% | 1028 hPa | 0 mm | - | 0 W/m² | - |
| 1777518634 | 6.11° C | 59% | 1028.2 hPa | 0 mm | - | 0 W/m² | - |
| 1777518037 | 6.11° C | 59% | 1028.2 hPa | 0 mm | - | 0 W/m² | - |
| 1777516837 | 6.67° C | 57% | 1028.1 hPa | 0 mm | - | 0 W/m² | - |
| 1777515636 | 7.22° C | 55% | 1028.1 hPa | 0 mm | - | 0 W/m² | - |
| 1777512635 | 8.33° C | 52% | 1027.9 hPa | 0 mm | - | 0 W/m² | - |
| 1777510836 | 8.33° C | 52% | 1027.7 hPa | 0 mm | - | 0 W/m² | - |
| 1777510238 | 8.33° C | 52% | 1027.8 hPa | 0 mm | - | 0 W/m² | - |
| 1777507836 | 8.89° C | 51% | 1027.8 hPa | 0 mm | - | 0 W/m² | - |
| 1777503042 | 10.56° C | 48% | 1027.6 hPa | 0 mm | - | 0 W/m² | - |
| 1777500041 | 11.11° C | 47% | 1027.3 hPa | 0 mm | - | 0 W/m² | - |
| 1777499447 | 11.11° C | 48% | 1027.3 hPa | 0 mm | - | 0 W/m² | - |
| 1777494046 | 12.78° C | 47% | 1026.6 hPa | 0 mm | - | 0 W/m² | - |
| 1777491050 | 13.89° C | 44% | 1026 hPa | 0 mm | - | 0 W/m² | - |
| 1777489845 | 14.44° C | 39% | 1025.8 hPa | 0 mm | - | 0 W/m² | - |
| 1777489246 | 15° C | 36% | 1025.6 hPa | 0 mm | - | 4 W/m² | - |
| 1777487446 | 16.11° C | 34% | 1025.2 hPa | 0 mm | - | 16 W/m² | - |
| 1777485647 | 17.22° C | 31% | 1024.9 hPa | 0 mm | - | 32 W/m² | - |
| 1777483842 | 17.78° C | 29% | 1024.7 hPa | 0 mm | - | 120 W/m² | - |
| 1777479640 | 18.89° C | 29% | 1024.7 hPa | 0 mm | - | 368 W/m² | - |
| 1777477241 | 18.89° C | 31% | 1024.7 hPa | 0 mm | - | 480 W/m² | - |
* Rain latest hour (hover to see other rain measurements)
** Current wind speed in m/s (hover to see current wind gust speed)